Time;durP1;ratioP1;P1;durP2;ratioP2;P2;SDS_P1;SDS_P2;PMS_P1;PMS_P2;Temp;Humidity;BMP_temperature;BMP_pressure;BME280_temperature;BME280_humidity;BME280_pressure;Samples;Min_cycle;Max_cycle;Signal;HPM_P1;HPM_P2
2023/08/31 00:01:28;;;;;;;13.88;6.70;;;;;;;;;;5035595;28;20492;-65
2023/08/31 00:03:54;;;;;;;15.68;7.40;;;;;;;;;;5035938;28;20024;-65
2023/08/31 00:06:21;;;;;;;13.77;6.80;;;;;;;;;;5035895;28;20054;-70
2023/08/31 00:08:47;;;;;;;16.92;6.57;;;;;;;;;;5034100;28;20025;-70
2023/08/31 00:11:12;;;;;;;18.33;7.10;;;;;;;;;;5035849;28;20026;-70
2023/08/31 00:13:38;;;;;;;14.13;6.15;;;;;;;;;;5035384;28;20018;-70
2023/08/31 00:16:04;;;;;;;13.18;5.90;;;;;;;;;;5035693;28;20095;-70
2023/08/31 00:18:30;;;;;;;12.93;6.20;;;;;;;;;;5020444;28;20025;-70
2023/08/31 00:20:55;;;;;;;14.32;6.53;;;;;;;;;;5016335;28;20496;-70
2023/08/31 00:23:20;;;;;;;11.80;5.97;;;;;;;;;;5016354;28;20029;-70
2023/08/31 00:25:47;;;;;;;19.25;6.47;;;;;;;;;;5016279;28;20272;-69
2023/08/31 00:28:15;;;;;;;10.80;5.50;;;;;;;;;;5028580;28;20024;-70
2023/08/31 00:30:41;;;;;;;16.75;6.05;;;;;;;;;;5035469;28;20024;-70
2023/08/31 00:33:07;;;;;;;11.32;5.53;;;;;;;;;;5035140;28;20048;-70
2023/08/31 00:35:33;;;;;;;13.80;5.38;;;;;;;;;;5035311;28;20049;-70
2023/08/31 00:37:58;;;;;;;13.77;5.85;;;;;;;;;;5020311;28;20474;-70
2023/08/31 00:40:24;;;;;;;12.63;5.50;;;;;;;;;;5033498;28;20075;-70
2023/08/31 00:42:49;;;;;;;21.23;5.80;;;;;;;;;;5035221;28;20060;-70
2023/08/31 00:45:15;;;;;;;10.07;5.20;;;;;;;;;;5035181;28;20109;-70
2023/08/31 00:47:41;;;;;;;12.85;5.55;;;;;;;;;;5033156;28;20293;-70
2023/08/31 00:50:07;;;;;;;10.30;5.63;;;;;;;;;;5034144;28;20025;-70
2023/08/31 00:52:32;;;;;;;13.45;5.82;;;;;;;;;;5034985;28;20025;-70
2023/08/31 00:54:58;;;;;;;17.02;6.15;;;;;;;;;;5034579;28;20033;-70
2023/08/31 00:57:26;;;;;;;12.13;6.05;;;;;;;;;;5020393;28;20033;-70
2023/08/31 00:59:51;;;;;;;14.05;5.68;;;;;;;;;;5015606;28;20030;-70
2023/08/31 01:02:27;;;;;;;19.43;7.70;;;;;;;;;;5015618;28;20017;-70
2023/08/31 01:05:11;;;;;;;12.02;5.93;;;;;;;;;;5015512;28;20036;-70
2023/08/31 01:07:39;;;;;;;13.27;6.93;;;;;;;;;;5016506;28;20045;-70
2023/08/31 01:10:09;;;;;;;12.85;6.63;;;;;;;;;;5015440;28;20381;-70
2023/08/31 01:12:40;;;;;;;12.82;6.28;;;;;;;;;;5015411;28;20022;-70
2023/08/31 01:15:07;;;;;;;18.98;7.47;;;;;;;;;;5015975;28;20043;-70
2023/08/31 01:17:35;;;;;;;15.93;6.15;;;;;;;;;;5019512;28;20429;-70
2023/08/31 01:20:03;;;;;;;17.85;7.07;;;;;;;;;;5034447;28;20429;-70
2023/08/31 01:22:48;;;;;;;13.75;6.63;;;;;;;;;;5016378;28;20100;-70
2023/08/31 01:25:13;;;;;;;15.10;5.75;;;;;;;;;;5015219;28;20029;-70
2023/08/31 01:27:39;;;;;;;13.98;7.32;;;;;;;;;;5016098;28;20025;-70
2023/08/31 01:30:05;;;;;;;21.17;6.68;;;;;;;;;;5015086;28;20018;-70
2023/08/31 01:32:31;;;;;;;15.45;7.25;;;;;;;;;;5015011;28;20048;-70
2023/08/31 01:35:01;;;;;;;15.73;6.57;;;;;;;;;;5029026;28;20036;-70
2023/08/31 01:37:46;;;;;;;27.90;6.57;;;;;;;;;;5027328;28;20488;-70
2023/08/31 01:40:17;;;;;;;13.93;6.35;;;;;;;;;;5014218;28;20037;-70
2023/08/31 01:42:43;;;;;;;18.52;6.85;;;;;;;;;;5014935;28;20079;-69
2023/08/31 01:45:10;;;;;;;14.77;6.72;;;;;;;;;;5017707;28;20022;-70
2023/08/31 01:47:36;;;;;;;13.52;6.95;;;;;;;;;;5033778;28;20057;-70
2023/08/31 01:50:01;;;;;;;20.02;7.80;;;;;;;;;;5030986;28;20025;-70
2023/08/31 01:52:27;;;;;;;24.17;8.43;;;;;;;;;;5033854;28;20021;-70
2023/08/31 01:54:52;;;;;;;19.75;7.63;;;;;;;;;;5033867;28;20017;-70
2023/08/31 01:57:17;;;;;;;14.60;7.57;;;;;;;;;;5033396;28;20032;-70
2023/08/31 01:59:42;;;;;;;12.63;7.13;;;;;;;;;;5020537;28;20029;-70
2023/08/31 02:02:08;;;;;;;14.23;6.60;;;;;;;;;;5014471;28;20260;-69
2023/08/31 02:04:33;;;;;;;15.70;7.97;;;;;;;;;;5014433;28;20294;-70
2023/08/31 02:06:58;;;;;;;12.97;6.90;;;;;;;;;;5014422;28;20022;-70
2023/08/31 02:09:23;;;;;;;13.30;6.75;;;;;;;;;;5014606;28;20040;-70
2023/08/31 02:11:49;;;;;;;15.00;6.90;;;;;;;;;;5033574;28;20470;-70
2023/08/31 02:14:14;;;;;;;16.93;7.03;;;;;;;;;;5033468;28;20022;-70
2023/08/31 02:16:39;;;;;;;20.43;7.83;;;;;;;;;;5015743;28;20029;-70
2023/08/31 02:19:04;;;;;;;17.15;6.65;;;;;;;;;;5014066;28;20536;-70
2023/08/31 02:21:30;;;;;;;21.27;6.70;;;;;;;;;;5029274;28;20044;-70
2023/08/31 02:23:55;;;;;;;14.40;6.97;;;;;;;;;;5033284;28;20297;-70
2023/08/31 02:26:21;;;;;;;20.90;8.23;;;;;;;;;;5033408;28;20469;-70
2023/08/31 02:28:46;;;;;;;14.75;7.70;;;;;;;;;;5033197;28;20033;-69
2023/08/31 02:31:13;;;;;;;16.02;7.60;;;;;;;;;;5030511;28;20029;-70
2023/08/31 02:33:38;;;;;;;15.90;7.57;;;;;;;;;;5013935;28;20032;-70
2023/08/31 02:36:03;;;;;;;15.43;6.90;;;;;;;;;;5013872;28;20405;-69
2023/08/31 02:38:29;;;;;;;17.75;6.65;;;;;;;;;;5013798;28;20018;-70
2023/08/31 02:40:54;;;;;;;15.07;6.87;;;;;;;;;;5013879;28;20053;-69
2023/08/31 02:43:19;;;;;;;18.30;6.97;;;;;;;;;;5032529;28;20752;-70
2023/08/31 02:45:44;;;;;;;14.13;5.83;;;;;;;;;;5019153;28;20751;-70
2023/08/31 02:48:10;;;;;;;14.17;6.03;;;;;;;;;;5013500;28;20042;-70
2023/08/31 02:50:35;;;;;;;16.95;5.82;;;;;;;;;;5013705;28;20746;-70
2023/08/31 02:53:00;;;;;;;14.77;6.15;;;;;;;;;;5013709;28;20025;-70
2023/08/31 02:55:26;;;;;;;14.52;5.10;;;;;;;;;;5031929;28;20041;-70
2023/08/31 02:57:51;;;;;;;26.07;5.87;;;;;;;;;;5032843;28;20428;-70
2023/08/31 03:00:16;;;;;;;11.82;5.32;;;;;;;;;;5032281;28;20037;-69
2023/08/31 03:02:43;;;;;;;12.55;5.93;;;;;;;;;;5032864;28;20014;-70
2023/08/31 03:05:08;;;;;;;23.20;5.95;;;;;;;;;;5032702;28;20014;-70
2023/08/31 03:07:34;;;;;;;16.87;5.90;;;;;;;;;;5023153;28;20359;-70
2023/08/31 03:09:59;;;;;;;18.77;6.63;;;;;;;;;;5013486;28;20650;-70
2023/08/31 03:12:24;;;;;;;10.50;5.37;;;;;;;;;;5012886;28;20021;-70
2023/08/31 03:14:49;;;;;;;11.25;5.25;;;;;;;;;;5021699;28;20259;-70
2023/08/31 03:17:14;;;;;;;20.13;5.80;;;;;;;;;;5032575;28;20033;-70
2023/08/31 03:19:40;;;;;;;16.37;5.67;;;;;;;;;;5018015;28;20463;-70
2023/08/31 03:22:05;;;;;;;9.47;5.40;;;;;;;;;;5017026;28;20070;-70
2023/08/31 03:24:32;;;;;;;10.38;5.30;;;;;;;;;;5032748;28;20013;-70
2023/08/31 03:26:57;;;;;;;18.90;5.30;;;;;;;;;;5033153;28;20469;-70
2023/08/31 03:29:22;;;;;;;9.87;4.90;;;;;;;;;;5033061;28;20092;-70
2023/08/31 03:31:47;;;;;;;12.43;6.10;;;;;;;;;;5018623;28;20025;-70
2023/08/31 03:34:13;;;;;;;15.27;5.63;;;;;;;;;;5013375;28;20263;-70
2023/08/31 03:36:38;;;;;;;14.40;5.10;;;;;;;;;;5013278;28;20030;-70
2023/08/31 03:39:04;;;;;;;20.60;5.80;;;;;;;;;;5013128;28;20205;-70
2023/08/31 03:41:30;;;;;;;12.60;5.07;;;;;;;;;;5014512;28;20018;-70
2023/08/31 03:43:55;;;;;;;19.48;5.72;;;;;;;;;;5015240;28;20486;-70
2023/08/31 03:46:20;;;;;;;10.48;5.40;;;;;;;;;;5030898;28;20072;-70
2023/08/31 03:48:46;;;;;;;14.27;5.77;;;;;;;;;;5031884;28;20026;-69
2023/08/31 03:51:11;;;;;;;22.17;5.33;;;;;;;;;;5032330;28;20033;-70
2023/08/31 03:53:36;;;;;;;12.57;4.87;;;;;;;;;;5032301;28;20036;-70
2023/08/31 03:56:03;;;;;;;14.80;5.40;;;;;;;;;;5030612;28;20037;-70
2023/08/31 03:58:29;;;;;;;12.48;5.68;;;;;;;;;;5032170;28;20500;-70
2023/08/31 04:00:54;;;;;;;9.87;5.40;;;;;;;;;;5031971;28;20057;-70
2023/08/31 04:03:19;;;;;;;13.45;5.10;;;;;;;;;;5013542;28;20022;-70
2023/08/31 04:05:45;;;;;;;15.50;6.03;;;;;;;;;;5013012;28;20153;-70
2023/08/31 04:08:10;;;;;;;14.57;5.30;;;;;;;;;;5020564;28;20484;-69
2023/08/31 04:10:35;;;;;;;19.80;6.03;;;;;;;;;;5032137;28;20024;-70
2023/08/31 04:13:00;;;;;;;16.60;5.73;;;;;;;;;;5032074;28;20022;-70
2023/08/31 04:15:26;;;;;;;11.70;5.80;;;;;;;;;;5014932;28;20425;-70
2023/08/31 04:17:51;;;;;;;16.10;6.17;;;;;;;;;;5024852;28;20654;-70
2023/08/31 04:20:16;;;;;;;13.30;6.30;;;;;;;;;;5030562;28;20703;-70
2023/08/31 04:22:41;;;;;;;10.20;6.03;;;;;;;;;;5031756;28;20669;-70
2023/08/31 04:25:07;;;;;;;17.27;5.97;;;;;;;;;;5034574;28;20025;-70
2023/08/31 04:27:32;;;;;;;15.73;6.78;;;;;;;;;;5035469;28;20269;-70
2023/08/31 04:30:01;;;;;;;16.37;6.47;;;;;;;;;;5033721;28;20503;-69
2023/08/31 04:32:26;;;;;;;15.13;7.65;;;;;;;;;;5035375;28;20811;-70
2023/08/31 04:34:52;;;;;;;22.52;10.40;;;;;;;;;;5035104;28;20022;-69
2023/08/31 04:37:17;;;;;;;31.75;12.02;;;;;;;;;;5035292;28;20026;-70
2023/08/31 04:39:42;;;;;;;27.02;9.98;;;;;;;;;;5035250;28;20029;-70
2023/08/31 04:42:08;;;;;;;36.53;13.83;;;;;;;;;;5034317;28;20152;-69
2023/08/31 04:44:33;;;;;;;30.50;15.32;;;;;;;;;;5027570;28;20393;-70
2023/08/31 04:46:58;;;;;;;28.08;14.35;;;;;;;;;;5035052;28;20048;-70
2023/08/31 04:49:24;;;;;;;30.40;15.30;;;;;;;;;;5034830;28;20100;-70
2023/08/31 04:51:49;;;;;;;31.65;15.48;;;;;;;;;;5035055;28;20293;-70
2023/08/31 04:54:14;;;;;;;34.80;15.02;;;;;;;;;;5033564;28;20028;-70
2023/08/31 04:56:40;;;;;;;30.67;14.05;;;;;;;;;;5034637;28;20037;-70
2023/08/31 04:59:05;;;;;;;32.13;14.18;;;;;;;;;;5034792;28;20554;-70
2023/08/31 05:01:30;;;;;;;24.53;12.77;;;;;;;;;;5033292;28;20025;-70
2023/08/31 05:03:55;;;;;;;19.90;11.60;;;;;;;;;;5019031;28;20314;-70
2023/08/31 05:06:21;;;;;;;24.07;11.10;;;;;;;;;;5015406;28;20413;-70
2023/08/31 05:08:46;;;;;;;19.30;9.20;;;;;;;;;;5015506;28;20271;-69
2023/08/31 05:11:12;;;;;;;23.52;9.57;;;;;;;;;;5015479;28;20026;-70
2023/08/31 05:13:37;;;;;;;19.57;8.37;;;;;;;;;;5016852;28;20029;-68
2023/08/31 05:16:03;;;;;;;19.27;8.00;;;;;;;;;;5034600;28;20021;-72
2023/08/31 05:18:28;;;;;;;22.17;8.07;;;;;;;;;;5029372;28;20112;-72
2023/08/31 05:20:53;;;;;;;15.53;6.63;;;;;;;;;;5034833;28;20436;-72
2023/08/31 05:23:18;;;;;;;18.50;6.93;;;;;;;;;;5035132;28;20243;-72
2023/08/31 05:25:44;;;;;;;17.87;6.37;;;;;;;;;;5033744;28;20376;-72
2023/08/31 05:28:09;;;;;;;14.55;6.97;;;;;;;;;;5009156;28;20064;-72
2023/08/31 05:30:34;;;;;;;12.40;5.57;;;;;;;;;;5034361;28;20013;-72
2023/08/31 05:33:00;;;;;;;20.65;5.88;;;;;;;;;;5033845;28;20473;-72
2023/08/31 05:35:25;;;;;;;16.05;6.43;;;;;;;;;;5014656;28;20228;-72
2023/08/31 05:37:50;;;;;;;15.50;6.53;;;;;;;;;;5015008;28;20018;-73
2023/08/31 05:40:16;;;;;;;13.67;5.60;;;;;;;;;;5023679;28;20647;-68
2023/08/31 05:42:42;;;;;;;14.95;5.75;;;;;;;;;;5034138;28;20332;-68
2023/08/31 05:45:08;;;;;;;15.07;5.03;;;;;;;;;;5033996;28;20029;-68
2023/08/31 05:47:34;;;;;;;20.17;6.40;;;;;;;;;;5033395;28;20037;-68
2023/08/31 05:49:59;;;;;;;13.02;5.95;;;;;;;;;;5020726;28;20030;-68
2023/08/31 05:52:25;;;;;;;15.07;5.40;;;;;;;;;;5030599;28;20025;-68
2023/08/31 05:54:50;;;;;;;14.80;5.70;;;;;;;;;;5033890;28;20025;-68
2023/08/31 05:57:18;;;;;;;12.32;5.47;;;;;;;;;;5034127;28;20122;-65
2023/08/31 05:59:43;;;;;;;13.55;4.55;;;;;;;;;;5033340;28;20033;-65
2023/08/31 06:02:09;;;;;;;18.60;5.20;;;;;;;;;;5032148;28;20450;-65
2023/08/31 06:04:34;;;;;;;11.27;5.00;;;;;;;;;;5026372;28;20026;-65
2023/08/31 06:06:59;;;;;;;11.50;4.33;;;;;;;;;;5014413;28;20058;-65
2023/08/31 06:09:24;;;;;;;15.80;4.90;;;;;;;;;;5014455;28;20263;-65
2023/08/31 06:11:50;;;;;;;11.13;4.60;;;;;;;;;;5014255;28;20674;-66
2023/08/31 06:14:15;;;;;;;17.13;5.33;;;;;;;;;;5017026;28;20458;-65
2023/08/31 06:16:40;;;;;;;15.80;5.43;;;;;;;;;;5033461;28;20029;-65
2023/08/31 06:19:05;;;;;;;13.83;3.97;;;;;;;;;;5033389;28;20551;-65
2023/08/31 06:21:31;;;;;;;15.40;4.30;;;;;;;;;;5003787;28;20632;-65
2023/08/31 06:23:56;;;;;;;14.87;4.33;;;;;;;;;;5003429;28;20022;-65
2023/08/31 06:26:21;;;;;;;12.23;4.05;;;;;;;;;;4999080;28;20380;-65
2023/08/31 06:28:46;;;;;;;14.95;3.42;;;;;;;;;;5013706;28;20018;-65
2023/08/31 06:31:12;;;;;;;10.50;3.22;;;;;;;;;;5013785;28;20040;-65
2023/08/31 06:33:37;;;;;;;11.57;3.50;;;;;;;;;;5013542;28;20028;-65
2023/08/31 06:36:02;;;;;;;10.60;3.57;;;;;;;;;;5011287;28;20255;-65
2023/08/31 06:38:28;;;;;;;12.77;3.67;;;;;;;;;;5012397;28;20279;-65
2023/08/31 06:40:58;;;;;;;13.85;3.55;;;;;;;;;;5002913;28;20046;-65
2023/08/31 06:43:23;;;;;;;14.38;3.20;;;;;;;;;;4994156;28;20425;-65
2023/08/31 06:45:48;;;;;;;8.68;3.13;;;;;;;;;;4993757;28;20126;-66
2023/08/31 06:48:14;;;;;;;13.57;3.20;;;;;;;;;;5005670;28;20049;-65
2023/08/31 06:50:39;;;;;;;11.60;3.85;;;;;;;;;;5013121;28;20022;-65
2023/08/31 06:53:04;;;;;;;9.67;3.53;;;;;;;;;;4995497;28;20069;-65
2023/08/31 06:55:31;;;;;;;7.97;3.07;;;;;;;;;;4993900;28;20259;-65
2023/08/31 06:57:57;;;;;;;12.52;3.97;;;;;;;;;;5000807;28;20605;-66
2023/08/31 07:00:22;;;;;;;13.60;3.37;;;;;;;;;;5013466;28;20079;-65
2023/08/31 07:02:47;;;;;;;8.48;3.17;;;;;;;;;;5005768;28;20053;-65
2023/08/31 07:05:13;;;;;;;8.10;3.17;;;;;;;;;;5012698;28;20104;-65
2023/08/31 07:07:38;;;;;;;9.32;3.00;;;;;;;;;;5013379;28;20259;-66
2023/08/31 07:10:05;;;;;;;13.90;3.25;;;;;;;;;;5012084;28;20496;-65
2023/08/31 07:12:30;;;;;;;11.18;2.72;;;;;;;;;;5005087;28;20026;-66
2023/08/31 07:14:55;;;;;;;13.67;2.87;;;;;;;;;;5003217;28;20037;-65
2023/08/31 07:17:21;;;;;;;10.00;3.27;;;;;;;;;;5004797;28;20030;-65
2023/08/31 07:19:46;;;;;;;15.75;3.50;;;;;;;;;;5012705;28;20029;-65
2023/08/31 07:22:12;;;;;;;7.00;2.70;;;;;;;;;;5005300;28;20576;-65
2023/08/31 07:24:37;;;;;;;9.63;2.65;;;;;;;;;;5013080;28;20880;-65
2023/08/31 07:27:03;;;;;;;8.27;2.77;;;;;;;;;;5013291;28;20108;-66
2023/08/31 07:29:28;;;;;;;14.45;2.88;;;;;;;;;;5013200;28;20042;-65
2023/08/31 07:31:53;;;;;;;7.03;2.28;;;;;;;;;;5011884;28;20028;-66
2023/08/31 07:34:18;;;;;;;6.73;2.50;;;;;;;;;;5012955;28;20488;-66
2023/08/31 07:36:43;;;;;;;7.43;2.87;;;;;;;;;;5012699;28;20263;-66
2023/08/31 07:39:09;;;;;;;6.17;2.33;;;;;;;;;;5011644;28;20346;-65
2023/08/31 07:41:34;;;;;;;11.55;2.97;;;;;;;;;;5013906;28;20013;-65
2023/08/31 07:43:59;;;;;;;6.73;2.43;;;;;;;;;;5013126;28;20478;-65
2023/08/31 07:46:24;;;;;;;7.93;2.27;;;;;;;;;;5004995;28;20045;-65
2023/08/31 07:48:50;;;;;;;5.03;2.17;;;;;;;;;;5013094;28;20117;-65
2023/08/31 07:51:16;;;;;;;7.97;2.60;;;;;;;;;;5011015;28;20275;-66
2023/08/31 07:53:41;;;;;;;10.57;2.92;;;;;;;;;;5005207;28;20055;-66
2023/08/31 07:56:06;;;;;;;6.03;2.23;;;;;;;;;;5005217;28;20037;-65
2023/08/31 07:58:31;;;;;;;6.83;2.20;;;;;;;;;;5013608;28;20029;-66
2023/08/31 08:00:56;;;;;;;6.17;2.43;;;;;;;;;;5011923;28;20022;-65
2023/08/31 08:03:22;;;;;;;11.37;2.40;;;;;;;;;;5012958;28;20258;-65
2023/08/31 08:05:47;;;;;;;7.70;2.50;;;;;;;;;;5014426;28;20735;-66
2023/08/31 08:08:12;;;;;;;11.40;2.88;;;;;;;;;;5016567;28;20474;-66
2023/08/31 08:10:38;;;;;;;5.33;2.27;;;;;;;;;;5010276;28;20018;-66
2023/08/31 08:13:03;;;;;;;12.88;2.75;;;;;;;;;;5014974;28;20696;-66
2023/08/31 08:15:29;;;;;;;15.55;2.92;;;;;;;;;;5015070;28;20041;-66
2023/08/31 08:17:54;;;;;;;11.05;2.63;;;;;;;;;;5008708;28;20096;-72
2023/08/31 08:20:20;;;;;;;8.03;2.37;;;;;;;;;;5013093;28;20386;-72
2023/08/31 08:22:45;;;;;;;7.30;2.40;;;;;;;;;;5010472;28;20255;-72
2023/08/31 08:25:10;;;;;;;11.05;2.50;;;;;;;;;;5014999;28;20017;-72
2023/08/31 08:27:36;;;;;;;6.00;2.08;;;;;;;;;;5004170;28;20025;-73
2023/08/31 08:30:02;;;;;;;9.50;2.40;;;;;;;;;;5011384;28;20018;-72
2023/08/31 08:32:27;;;;;;;11.88;2.15;;;;;;;;;;5015198;28;20390;-72
2023/08/31 08:34:52;;;;;;;9.53;2.03;;;;;;;;;;5008385;28;20032;-72
2023/08/31 08:37:17;;;;;;;9.40;2.40;;;;;;;;;;5016035;28;20290;-72
2023/08/31 08:39:43;;;;;;;7.53;2.40;;;;;;;;;;5012355;28;20054;-72
2023/08/31 08:42:10;;;;;;;8.50;2.20;;;;;;;;;;5002001;28;20077;-72
2023/08/31 08:44:35;;;;;;;10.43;2.47;;;;;;;;;;5014465;28;20025;-72
2023/08/31 08:47:00;;;;;;;10.32;2.92;;;;;;;;;;5015743;28;20057;-73
2023/08/31 08:49:26;;;;;;;10.03;2.37;;;;;;;;;;5007211;28;20030;-72
2023/08/31 08:51:52;;;;;;;11.25;2.63;;;;;;;;;;5007911;28;20037;-71
2023/08/31 08:54:18;;;;;;;7.53;2.20;;;;;;;;;;5015765;28;20034;-71
2023/08/31 08:56:43;;;;;;;8.52;2.30;;;;;;;;;;5010555;28;20040;-72
2023/08/31 08:59:12;;;;;;;6.07;2.25;;;;;;;;;;5012936;28;20029;-70
2023/08/31 09:01:38;;;;;;;9.82;2.38;;;;;;;;;;5015611;28;20018;-72
2023/08/31 09:04:03;;;;;;;9.35;2.42;;;;;;;;;;5006413;28;20455;-74
2023/08/31 09:06:28;;;;;;;7.15;2.22;;;;;;;;;;5014609;28;20068;-75
2023/08/31 09:08:56;;;;;;;16.80;2.55;;;;;;;;;;5007005;28;20525;-75
2023/08/31 09:11:24;;;;;;;7.43;2.25;;;;;;;;;;5013675;28;20461;-74
2023/08/31 09:13:50;;;;;;;9.35;2.17;;;;;;;;;;5013897;28;20413;-71
2023/08/31 09:16:31;;;;;;;9.23;2.22;;;;;;;;;;5015281;28;20025;-71
2023/08/31 09:18:56;;;;;;;9.45;2.60;;;;;;;;;;5014688;28;20018;-71
2023/08/31 09:21:24;;;;;;;9.85;4.10;;;;;;;;;;5015137;28;20018;-72
2023/08/31 09:23:56;;;;;;;16.75;2.55;;;;;;;;;;5006334;28;20026;-71
2023/08/31 09:26:21;;;;;;;8.70;2.67;;;;;;;;;;5004075;28;20014;-72
2023/08/31 09:28:47;;;;;;;8.17;2.17;;;;;;;;;;5003533;28;20547;-71
2023/08/31 09:31:12;;;;;;;10.50;2.50;;;;;;;;;;5015078;28;20064;-71
2023/08/31 09:33:37;;;;;;;7.78;2.25;;;;;;;;;;5014450;28;20018;-72
2023/08/31 09:36:04;;;;;;;14.73;2.13;;;;;;;;;;5014787;28;20022;-70
2023/08/31 09:38:29;;;;;;;7.28;2.03;;;;;;;;;;5005319;28;20040;-68
2023/08/31 09:41:03;;;;;;;11.35;2.75;;;;;;;;;;5014868;28;20458;-73
2023/08/31 09:43:28;;;;;;;14.43;2.42;;;;;;;;;;5014129;28;20022;-75
2023/08/31 09:45:53;;;;;;;8.75;2.17;;;;;;;;;;5014820;28;20025;-71
2023/08/31 09:48:19;;;;;;;8.40;1.93;;;;;;;;;;5013938;28;20077;-70
2023/08/31 09:50:45;;;;;;;12.40;2.38;;;;;;;;;;5006933;28;20254;-71
2023/08/31 09:53:11;;;;;;;10.45;2.53;;;;;;;;;;5014633;28;20014;-71
2023/08/31 09:55:38;;;;;;;9.38;2.55;;;;;;;;;;5014498;28;20032;-71
2023/08/31 09:58:05;;;;;;;10.50;2.42;;;;;;;;;;5008101;28;20426;-71
2023/08/31 10:00:31;;;;;;;12.32;2.40;;;;;;;;;;5011972;28;20033;-71
2023/08/31 10:03:00;;;;;;;6.72;2.25;;;;;;;;;;5007118;28;20395;-71
2023/08/31 10:05:25;;;;;;;7.47;2.63;;;;;;;;;;5008982;28;20025;-72
2023/08/31 10:07:50;;;;;;;11.80;2.40;;;;;;;;;;5014351;28;20064;-72
2023/08/31 10:10:16;;;;;;;11.32;2.60;;;;;;;;;;5014274;28;20482;-72
2023/08/31 10:12:42;;;;;;;8.57;3.03;;;;;;;;;;5012937;28;20363;-72
2023/08/31 10:15:08;;;;;;;7.82;2.15;;;;;;;;;;5014253;28;20026;-71
2023/08/31 10:17:34;;;;;;;6.32;2.20;;;;;;;;;;5013861;28;20496;-72
2023/08/31 10:19:59;;;;;;;12.27;2.75;;;;;;;;;;5013802;28;20363;-72
2023/08/31 10:22:25;;;;;;;12.43;2.60;;;;;;;;;;5005793;28;20022;-72
2023/08/31 10:24:58;;;;;;;8.20;2.30;;;;;;;;;;5010155;28;20260;-72
2023/08/31 10:27:24;;;;;;;17.70;2.90;;;;;;;;;;5011244;28;20385;-72
2023/08/31 10:29:49;;;;;;;6.60;2.30;;;;;;;;;;5006073;28;20101;-72
2023/08/31 10:32:21;;;;;;;10.63;2.60;;;;;;;;;;5013899;28;20026;-72
2023/08/31 10:35:16;;;;;;;7.57;2.47;;;;;;;;;;5013428;28;20025;-72
2023/08/31 10:37:41;;;;;;;13.32;2.33;;;;;;;;;;5005820;28;20481;-72
2023/08/31 10:40:11;;;;;;;7.47;2.80;;;;;;;;;;5009917;28;20088;-72
2023/08/31 10:42:43;;;;;;;13.88;2.42;;;;;;;;;;5010481;28;20026;-72
2023/08/31 10:45:09;;;;;;;8.63;2.22;;;;;;;;;;5005919;28;20044;-72
2023/08/31 10:47:38;;;;;;;9.20;2.22;;;;;;;;;;5011495;28;20046;-71
2023/08/31 10:50:21;;;;;;;14.10;2.60;;;;;;;;;;5013544;28;20050;-70
2023/08/31 10:52:46;;;;;;;7.32;2.53;;;;;;;;;;5008613;28;20023;-74
2023/08/31 10:55:11;;;;;;;9.52;2.65;;;;;;;;;;5001479;28;20489;-73
2023/08/31 10:57:37;;;;;;;9.90;2.63;;;;;;;;;;5013729;28;20030;-74
2023/08/31 11:00:03;;;;;;;7.25;2.47;;;;;;;;;;5012926;28;20076;-74
2023/08/31 11:02:35;;;;;;;9.57;2.42;;;;;;;;;;5012917;28;20018;-74
2023/08/31 11:05:14;;;;;;;10.50;2.58;;;;;;;;;;5013260;28;20376;-74
2023/08/31 11:07:40;;;;;;;10.48;2.72;;;;;;;;;;5006780;28;20105;-74
2023/08/31 11:10:06;;;;;;;12.30;3.28;;;;;;;;;;5006075;28;20018;-74
2023/08/31 11:12:32;;;;;;;11.40;2.53;;;;;;;;;;5005141;28;20029;-74
2023/08/31 11:14:57;;;;;;;9.98;2.33;;;;;;;;;;5013684;28;20026;-74
2023/08/31 11:17:22;;;;;;;8.27;2.10;;;;;;;;;;5012762;28;20029;-73
2023/08/31 11:19:47;;;;;;;7.03;2.00;;;;;;;;;;5002305;28;20022;-73
2023/08/31 11:22:13;;;;;;;10.38;2.65;;;;;;;;;;4993725;28;20267;-73
2023/08/31 11:24:38;;;;;;;6.57;2.07;;;;;;;;;;5005027;28;20054;-74
2023/08/31 11:27:07;;;;;;;7.85;2.90;;;;;;;;;;5013313;28;20596;-75
2023/08/31 11:29:32;;;;;;;9.63;2.70;;;;;;;;;;5013222;28;20521;-74
2023/08/31 11:32:00;;;;;;;11.27;2.75;;;;;;;;;;5012683;28;20140;-74
2023/08/31 11:34:25;;;;;;;10.90;3.17;;;;;;;;;;5002462;28;20029;-74
2023/08/31 11:36:50;;;;;;;8.40;2.60;;;;;;;;;;5014481;28;20030;-72
2023/08/31 11:39:17;;;;;;;7.63;2.23;;;;;;;;;;5010077;28;20286;-72
2023/08/31 11:41:42;;;;;;;13.07;2.90;;;;;;;;;;5017134;28;20018;-73
2023/08/31 11:44:09;;;;;;;12.60;2.58;;;;;;;;;;5017049;28;20547;-72
2023/08/31 11:46:34;;;;;;;12.57;3.28;;;;;;;;;;5015595;28;20045;-72
2023/08/31 11:49:00;;;;;;;15.80;2.85;;;;;;;;;;5011402;28;20390;-72
2023/08/31 11:51:25;;;;;;;10.02;2.40;;;;;;;;;;5004966;28;20018;-73
2023/08/31 11:53:50;;;;;;;10.52;2.63;;;;;;;;;;5016831;28;20029;-72
2023/08/31 11:56:16;;;;;;;9.52;2.78;;;;;;;;;;5016864;28;20465;-72
2023/08/31 11:58:42;;;;;;;11.07;2.97;;;;;;;;;;5001037;28;20101;-72
2023/08/31 12:01:08;;;;;;;12.20;3.25;;;;;;;;;;5016812;28;20017;-72
2023/08/31 12:03:46;;;;;;;7.72;2.92;;;;;;;;;;5008257;28;20021;-72
2023/08/31 12:06:14;;;;;;;7.38;2.55;;;;;;;;;;5008564;28;20014;-71
2023/08/31 12:08:39;;;;;;;10.57;3.00;;;;;;;;;;5001652;28;20485;-72
2023/08/31 12:11:06;;;;;;;7.10;2.63;;;;;;;;;;5013585;28;20026;-72
2023/08/31 12:13:32;;;;;;;9.18;2.22;;;;;;;;;;5016477;28;20289;-72
2023/08/31 12:15:57;;;;;;;9.18;2.80;;;;;;;;;;5016533;28;20124;-72
2023/08/31 12:18:23;;;;;;;10.75;2.80;;;;;;;;;;5015678;28;20497;-72
2023/08/31 12:20:51;;;;;;;10.52;2.80;;;;;;;;;;5011171;28;20050;-72
2023/08/31 12:23:17;;;;;;;14.60;2.70;;;;;;;;;;5006365;28;20022;-71
2023/08/31 12:25:49;;;;;;;8.15;2.42;;;;;;;;;;5016361;28;20020;-72
2023/08/31 12:28:15;;;;;;;;;;;;;;;;;;5008662;28;20471;-72
2023/08/31 12:30:46;;;;;;;15.03;3.33;;;;;;;;;;5013599;28;19920;-73
2023/08/31 12:33:11;;;;;;;9.02;2.63;;;;;;;;;;5009649;28;20033;-74
2023/08/31 12:35:38;;;;;;;15.27;2.80;;;;;;;;;;5008351;28;20383;-74
2023/08/31 12:38:03;;;;;;;9.57;2.55;;;;;;;;;;5011481;28;20266;-75
2023/08/31 12:40:29;;;;;;;11.90;2.30;;;;;;;;;;5012370;28;20369;-76
2023/08/31 12:42:54;;;;;;;6.37;1.97;;;;;;;;;;5015941;28;20025;-71
2023/08/31 12:45:19;;;;;;;5.57;2.77;;;;;;;;;;5009565;28;20028;-74
2023/08/31 12:47:44;;;;;;;8.33;2.60;;;;;;;;;;4996469;28;20046;-70
2023/08/31 12:50:10;;;;;;;9.23;2.70;;;;;;;;;;5003420;28;20271;-70
2023/08/31 12:52:35;;;;;;;9.38;2.70;;;;;;;;;;5015900;28;20022;-70
2023/08/31 12:55:00;;;;;;;5.20;2.37;;;;;;;;;;5015908;28;20021;-70
2023/08/31 12:57:25;;;;;;;7.57;2.47;;;;;;;;;;5014626;28;20282;-63
2023/08/31 12:59:50;;;;;;;12.23;3.07;;;;;;;;;;5015055;28;20037;-63
2023/08/31 13:02:16;;;;;;;16.98;3.30;;;;;;;;;;5007244;28;20122;-63
2023/08/31 13:04:41;;;;;;;9.07;3.23;;;;;;;;;;5015597;28;20014;-63
2023/08/31 13:07:06;;;;;;;7.97;2.70;;;;;;;;;;5008501;28;20260;-63
2023/08/31 13:09:31;;;;;;;10.93;2.83;;;;;;;;;;5013982;28;20034;-63
2023/08/31 13:11:56;;;;;;;8.27;2.70;;;;;;;;;;5011370;28;20320;-63
2023/08/31 13:14:22;;;;;;;9.87;2.93;;;;;;;;;;5011576;28;20278;-63
2023/08/31 13:16:47;;;;;;;11.13;2.73;;;;;;;;;;5005340;28;20351;-63
2023/08/31 13:19:12;;;;;;;8.93;2.57;;;;;;;;;;5008849;28;20025;-63
2023/08/31 13:21:37;;;;;;;12.47;2.73;;;;;;;;;;5015252;28;20018;-63
2023/08/31 13:24:03;;;;;;;15.83;2.97;;;;;;;;;;5011686;28;20086;-63
2023/08/31 13:26:28;;;;;;;13.30;3.35;;;;;;;;;;5003887;28;20451;-63
2023/08/31 13:28:54;;;;;;;10.30;3.10;;;;;;;;;;5012672;28;20026;-63
2023/08/31 13:31:19;;;;;;;12.43;2.60;;;;;;;;;;5014591;28;20492;-63
2023/08/31 13:33:44;;;;;;;12.40;3.40;;;;;;;;;;5007159;28;20021;-63
2023/08/31 13:36:10;;;;;;;14.07;3.85;;;;;;;;;;5006903;28;20310;-63
2023/08/31 13:38:35;;;;;;;12.05;3.20;;;;;;;;;;5014797;28;20122;-63
2023/08/31 13:41:00;;;;;;;14.20;3.63;;;;;;;;;;5014912;28;20021;-63
2023/08/31 13:43:25;;;;;;;8.07;2.50;;;;;;;;;;5014716;28;20264;-63
2023/08/31 13:45:51;;;;;;;8.77;3.10;;;;;;;;;;5008967;28;20022;-63
2023/08/31 13:48:16;;;;;;;11.52;2.75;;;;;;;;;;5003062;28;20482;-63
2023/08/31 13:50:41;;;;;;;16.00;3.03;;;;;;;;;;5013904;28;20029;-63
2023/08/31 13:53:07;;;;;;;11.85;3.30;;;;;;;;;;5014689;28;20032;-63
2023/08/31 13:55:34;;;;;;;13.13;2.67;;;;;;;;;;5014269;28;20026;-63
2023/08/31 13:58:03;;;;;;;12.90;2.65;;;;;;;;;;5013431;28;20389;-63
2023/08/31 14:00:28;;;;;;;11.32;3.25;;;;;;;;;;5013892;28;20492;-63
2023/08/31 14:02:54;;;;;;;16.40;3.10;;;;;;;;;;5013260;28;20033;-63
2023/08/31 14:05:19;;;;;;;11.77;3.03;;;;;;;;;;5003024;28;20382;-63
2023/08/31 14:07:45;;;;;;;20.83;3.65;;;;;;;;;;5011149;28;20467;-63
2023/08/31 14:10:10;;;;;;;12.77;3.53;;;;;;;;;;5001835;28;20537;-63
2023/08/31 14:12:35;;;;;;;15.18;3.42;;;;;;;;;;5013684;28;20026;-63
2023/08/31 14:15:03;;;;;;;14.20;3.20;;;;;;;;;;5013911;28;20096;-63
2023/08/31 14:17:28;;;;;;;10.52;2.75;;;;;;;;;;5013526;28;20026;-63
2023/08/31 14:19:54;;;;;;;8.97;2.50;;;;;;;;;;5005823;28;20461;-63
2023/08/31 14:22:19;;;;;;;16.85;3.47;;;;;;;;;;5007168;28;20313;-63
2023/08/31 14:24:44;;;;;;;10.03;2.97;;;;;;;;;;5013948;28;20014;-63
2023/08/31 14:27:09;;;;;;;12.68;3.08;;;;;;;;;;5014115;28;20251;-63